Leukimmi — SY3734 — position and weather

sailwx.info

Track history (hours):
 
Tides and Currents Weather Stations Pressure Air Temp Water Temp Dewpoint Dewpoint Depression Visibility Wind Speed Wind Dir Waves Ship Positions

Leukimmi

Last reported at 2015-May-24 16:33 UTC. Time now 2015-May-25 03:25 UTC.
Position N 39°26' E 020°08'.

Length 65 m; draft 2.6 m.

Type: Passenger vessel. MMSI: 237671800.

Date/timePositionNaut miles runAvg speedWind from/ knotsBaromVisibWave heightAir tempDewpointWater temp
2015-May-24 16:33N 39°26' E 020°08'7 6.9
2015-May-24 15:32N 39°30' E 020°16'6 6.5
2015-May-24 14:33N 39°27' E 020°09'1 0.7
2015-May-24 13:33N 39°26' E 020°08'7 6.1
2015-May-24 12:24N 39°30' E 020°16'7 8.0
2015-May-24 11:33N 39°26' E 020°08'0 0.4
2015-May-24 10:33N 39°26' E 020°08'7 3.1
2015-May-24 08:15N 39°30' E 020°16'7 9.6
2015-May-24 07:33N 39°27' E 020°08'0 0.2
2015-May-24 06:33N 39°27' E 020°08'7 5.6
2015-May-24 05:19N 39°30' E 020°16'7 9.3
2015-May-24 04:33N 39°26' E 020°08'2 0.1
2015-May-22 08:33N 39°28' E 020°10'5 4.7
2015-May-22 07:33N 39°30' E 020°15'9 9.0
2015-May-22 06:33N 39°25' E 020°06'5 5.2
2015-May-22 05:33N 39°29' E 020°11'4 4.2
2015-May-22 04:33N 39°30' E 020°16'9 9.0
2015-May-22 03:33N 39°25' E 020°06'0 0.0
2015-May-21 18:34N 39°25' E 020°06'9 8.8
2015-May-21 17:33N 39°30' E 020°16'4 4.4
2015-May-21 16:33N 39°29' E 020°10'5 5.1
2015-May-21 15:33N 39°25' E 020°06'9 9.0
2015-May-21 14:33N 39°30' E 020°15'4 3.9
2015-May-21 13:33N 39°29' E 020°11'5 5.3
2015-May-21 12:33N 39°25' E 020°06'5 4.8
2015-May-21 11:33N 39°28' E 020°10'5 4.6
2015-May-21 10:33N 39°30' E 020°16'9 9.0
2015-May-21 09:33N 39°25' E 020°06'0 0.0
2015-May-20 09:05N 39°25' E 020°06'5 9.9
2015-May-20 08:33N 39°28' E 020°11'4 4.1
2015-May-20 07:33N 39°30' E 020°15'9 9.1
2015-May-20 06:33N 39°25' E 020°06'5 5.3
2015-May-20 05:33N 39°29' E 020°11'4 4.0
2015-May-20 04:33N 39°30' E 020°16'9 9.0
2015-May-20 03:33N 39°25' E 020°06'0 0.0
2015-May-19 18:33N 39°25' E 020°06'9 2.2
2015-May-19 14:28N 39°30' E 020°16'4 4.7
2015-May-19 13:33N 39°28' E 020°11'5 5.1
2015-May-19 12:33N 39°25' E 020°06'5 4.9
2015-May-19 11:33N 39°28' E 020°10'4 4.1
2015-May-19 10:33N 39°30' E 020°15'9 8.8
2015-May-19 09:33N 39°25' E 020°06'5 0.2
2015-May-18 08:33N 39°28' E 020°10'5 4.4
2015-May-18 07:31N 39°30' E 020°16'9 9.4
2015-May-18 06:33N 39°25' E 020°06'5 4.7
2015-May-18 05:33N 39°28' E 020°10'5 4.6
2015-May-18 04:33N 39°30' E 020°16'9 9.1
2015-May-18 03:33N 39°25' E 020°06'2 0.1
2015-May-16 16:33N 39°26' E 020°08'7 5.7
2015-May-16 15:17N 39°30' E 020°16'7 9.3
2015-May-16 14:33N 39°27' E 020°08'1 0.7
2015-May-16 13:33N 39°27' E 020°08'7 6.8
2015-May-16 12:33N 39°30' E 020°16'6 6.3
2015-May-16 11:33N 39°27' E 020°09'1 1.0
2015-May-16 10:33N 39°27' E 020°07'7 3.6
2015-May-16 08:32N 39°30' E 020°16'7 7.1
2015-May-16 07:33N 39°27' E 020°08'0 0.4
2015-May-16 06:33N 39°26' E 020°07'7 5.9
2015-May-16 05:19N 39°30' E 020°16'7 9.2
2015-May-16 04:33N 39°27' E 020°08'2 0.2
2015-May-15 18:33N 39°25' E 020°06'9 9.1
2015-May-15 17:33N 39°30' E 020°16'4 3.9
2015-May-15 16:32N 39°29' E 020°11'5 5.4
2015-May-15 15:33N 39°25' E 020°06'9 9.0
2015-May-15 14:33N 39°30' E 020°15'4 4.0
2015-May-15 13:33N 39°29' E 020°11'5 5.3
2015-May-15 12:33N 39°25' E 020°06'5 5.2
2015-May-15 11:33N 39°29' E 020°10'5 4.6
2015-May-15 10:33N 39°30' E 020°16'9 9.2
2015-May-15 09:33N 39°25' E 020°06'  
Track history (hours):
 
Tides and Currents Weather Stations Pressure Air Temp Water Temp Dewpoint Dewpoint Depression Visibility Wind Speed Wind Dir Waves Ship Positions

Leukimmi

Last reported at 2015-May-24 16:33 UTC. Time now 2015-May-25 03:25 UTC.
Position N 39°26' E 020°08'.

Length 65 m; draft 2.6 m.

Type: Passenger vessel. MMSI: 237671800.

Date/timePositionNaut miles runAvg speedWind from/ knotsBaromVisibWave heightAir tempDewpointWater temp
2015-May-24 16:33N 39°26' E 020°08'7 6.9
2015-May-24 15:32N 39°30' E 020°16'6 6.5
2015-May-24 14:33N 39°27' E 020°09'1 0.7
2015-May-24 13:33N 39°26' E 020°08'7 6.1
2015-May-24 12:24N 39°30' E 020°16'7 8.0
2015-May-24 11:33N 39°26' E 020°08'0 0.4
2015-May-24 10:33N 39°26' E 020°08'7 3.1
2015-May-24 08:15N 39°30' E 020°16'7 9.6
2015-May-24 07:33N 39°27' E 020°08'0 0.2
2015-May-24 06:33N 39°27' E 020°08'7 5.6
2015-May-24 05:19N 39°30' E 020°16'7 9.3
2015-May-24 04:33N 39°26' E 020°08'2 0.1
2015-May-22 08:33N 39°28' E 020°10'5 4.7
2015-May-22 07:33N 39°30' E 020°15'9 9.0
2015-May-22 06:33N 39°25' E 020°06'5 5.2
2015-May-22 05:33N 39°29' E 020°11'4 4.2
2015-May-22 04:33N 39°30' E 020°16'9 9.0
2015-May-22 03:33N 39°25' E 020°06'0 0.0
2015-May-21 18:34N 39°25' E 020°06'9 8.8
2015-May-21 17:33N 39°30' E 020°16'4 4.4
2015-May-21 16:33N 39°29' E 020°10'5 5.1
2015-May-21 15:33N 39°25' E 020°06'9 9.0
2015-May-21 14:33N 39°30' E 020°15'4 3.9
2015-May-21 13:33N 39°29' E 020°11'5 5.3
2015-May-21 12:33N 39°25' E 020°06'5 4.8
2015-May-21 11:33N 39°28' E 020°10'5 4.6
2015-May-21 10:33N 39°30' E 020°16'9 9.0
2015-May-21 09:33N 39°25' E 020°06'0 0.0
2015-May-20 09:05N 39°25' E 020°06'5 9.9
2015-May-20 08:33N 39°28' E 020°11'4 4.1
2015-May-20 07:33N 39°30' E 020°15'9 9.1
2015-May-20 06:33N 39°25' E 020°06'5 5.3
2015-May-20 05:33N 39°29' E 020°11'4 4.0
2015-May-20 04:33N 39°30' E 020°16'9 9.0
2015-May-20 03:33N 39°25' E 020°06'0 0.0
2015-May-19 18:33N 39°25' E 020°06'9 2.2
2015-May-19 14:28N 39°30' E 020°16'4 4.7
2015-May-19 13:33N 39°28' E 020°11'5 5.1
2015-May-19 12:33N 39°25' E 020°06'5 4.9
2015-May-19 11:33N 39°28' E 020°10'4 4.1
2015-May-19 10:33N 39°30' E 020°15'9 8.8
2015-May-19 09:33N 39°25' E 020°06'5 0.2
2015-May-18 08:33N 39°28' E 020°10'5 4.4
2015-May-18 07:31N 39°30' E 020°16'9 9.4
2015-May-18 06:33N 39°25' E 020°06'5 4.7
2015-May-18 05:33N 39°28' E 020°10'5 4.6
2015-May-18 04:33N 39°30' E 020°16'9 9.1
2015-May-18 03:33N 39°25' E 020°06'2 0.1
2015-May-16 16:33N 39°26' E 020°08'7 5.7
2015-May-16 15:17N 39°30' E 020°16'7 9.3
2015-May-16 14:33N 39°27' E 020°08'1 0.7
2015-May-16 13:33N 39°27' E 020°08'7 6.8
2015-May-16 12:33N 39°30' E 020°16'6 6.3
2015-May-16 11:33N 39°27' E 020°09'1 1.0
2015-May-16 10:33N 39°27' E 020°07'7 3.6
2015-May-16 08:32N 39°30' E 020°16'7 7.1
2015-May-16 07:33N 39°27' E 020°08'0 0.4
2015-May-16 06:33N 39°26' E 020°07'7 5.9
2015-May-16 05:19N 39°30' E 020°16'7 9.2
2015-May-16 04:33N 39°27' E 020°08'2 0.2
2015-May-15 18:33N 39°25' E 020°06'9 9.1
2015-May-15 17:33N 39°30' E 020°16'4 3.9
2015-May-15 16:32N 39°29' E 020°11'5 5.4
2015-May-15 15:33N 39°25' E 020°06'9 9.0
2015-May-15 14:33N 39°30' E 020°15'4 4.0
2015-May-15 13:33N 39°29' E 020°11'5 5.3
2015-May-15 12:33N 39°25' E 020°06'5 5.2
2015-May-15 11:33N 39°29' E 020°10'5 4.6
2015-May-15 10:33N 39°30' E 020°16'9 9.2
2015-May-15 09:33N 39°25' E 020°06'  

Dump ship's entire track history